Time;durP1;ratioP1;P1;durP2;ratioP2;P2;SDS_P1;SDS_P2;PMS_P1;PMS_P2;Temp;Humidity;BMP_temperature;BMP_pressure;BME280_temperature;BME280_humidity;BME280_pressure;Samples;Min_cycle;Max_cycle;Signal;HPM_P1;HPM_P2
2021/06/27 00:00:33;;;;;;;15.03;4.27;;;;;;;21.68;62.33;95147.69;5068392;28;20200;-67
2021/06/27 00:03:00;;;;;;;10.63;4.20;;;;;;;21.46;62.69;95139.94;5059490;28;20318;-69
2021/06/27 00:05:29;;;;;;;11.87;4.30;;;;;;;21.53;62.86;95140.22;5072526;28;20198;-69
2021/06/27 00:07:58;;;;;;;12.10;4.40;;;;;;;21.62;62.69;95149.00;5069880;28;20237;-69
2021/06/27 00:10:31;;;;;;;14.30;3.93;;;;;;;21.51;62.92;95123.78;5067651;28;20202;-72
2021/06/27 00:13:00;;;;;;;9.30;4.10;;;;;;;21.68;62.77;95143.16;5064642;28;20319;-70
2021/06/27 00:15:36;;;;;;;12.77;4.47;;;;;;;21.51;62.92;95139.75;5091185;28;20581;-68
2021/06/27 00:18:04;;;;;;;9.90;4.30;;;;;;;21.54;63.27;95145.25;5086600;28;20219;-68
2021/06/27 00:20:33;;;;;;;11.63;4.57;;;;;;;21.64;63.07;95149.47;5086823;28;20218;-69
2021/06/27 00:23:00;;;;;;;13.30;4.60;;;;;;;21.69;62.43;95122.63;5091465;28;20187;-71
2021/06/27 00:25:31;;;;;;;16.50;4.77;;;;;;;21.74;62.78;95138.44;5091144;28;20195;-69
2021/06/27 00:27:59;;;;;;;12.83;5.27;;;;;;;21.85;62.04;95139.69;5091482;28;20202;-70
2021/06/27 00:30:27;;;;;;;15.50;4.77;;;;;;;21.68;62.47;95134.38;5091024;28;20852;-68
2021/06/27 00:32:55;;;;;;;12.27;4.50;;;;;;;21.70;62.57;95138.28;5091235;28;20206;-70
2021/06/27 00:35:25;;;;;;;14.63;4.40;;;;;;;21.66;63.04;95139.25;5091444;28;20207;-67
2021/06/27 00:37:52;;;;;;;13.17;4.50;;;;;;;21.61;62.95;95134.06;5080934;28;20272;-70
2021/06/27 00:40:21;;;;;;;15.77;5.40;;;;;;;21.49;63.67;95125.97;5084665;28;20230;-69
2021/06/27 00:42:49;;;;;;;13.87;4.83;;;;;;;21.59;63.54;95125.59;5079912;28;20199;-69
2021/06/27 00:45:19;;;;;;;16.73;4.70;;;;;;;21.63;63.22;95129.22;5090743;28;20196;-68
2021/06/27 00:47:47;;;;;;;11.90;4.50;;;;;;;21.50;63.44;95116.84;5083587;28;20195;-69
2021/06/27 00:50:24;;;;;;;16.53;4.97;;;;;;;21.41;63.41;95124.88;5070399;28;20670;-70
2021/06/27 00:52:52;;;;;;;14.23;4.47;;;;;;;21.56;63.11;95136.91;5073761;28;21032;-71
2021/06/27 00:55:20;;;;;;;16.80;4.90;;;;;;;21.50;63.01;95140.84;5071501;28;20191;-68
2021/06/27 00:57:50;;;;;;;20.50;5.23;;;;;;;21.38;63.58;95130.06;5076226;28;20677;-69
2021/06/27 01:00:23;;;;;;;11.17;4.63;;;;;;;21.40;63.34;95123.34;5090737;28;20533;-71
2021/06/27 01:02:50;;;;;;;12.60;5.10;;;;;;;21.29;63.57;95121.31;5084957;28;20191;-70
2021/06/27 01:05:23;;;;;;;17.70;4.63;;;;;;;21.38;63.53;95119.41;5070165;28;20198;-70
2021/06/27 01:07:50;;;;;;;14.87;4.80;;;;;;;21.21;63.68;95119.44;5089974;28;20262;-70
2021/06/27 01:10:19;;;;;;;14.30;4.70;;;;;;;20.83;64.79;95122.75;5094002;28;20199;-69
2021/06/27 01:12:46;;;;;;;16.20;4.87;;;;;;;21.06;63.98;95105.50;5091649;28;20219;-68
2021/06/27 01:15:15;;;;;;;18.37;5.00;;;;;;;21.01;64.46;95121.66;5083391;28;20203;-69
2021/06/27 01:17:45;;;;;;;13.10;4.33;;;;;;;21.07;64.53;95099.09;5080515;28;20210;-69
2021/06/27 01:20:16;;;;;;;13.83;4.87;;;;;;;21.22;63.68;95105.03;5094219;28;20241;-68
2021/06/27 01:22:43;;;;;;;12.03;4.77;;;;;;;21.30;63.43;95097.00;5091409;28;20179;-69
2021/06/27 01:25:16;;;;;;;14.90;4.40;;;;;;;21.30;63.30;95093.53;5090052;28;20215;-70
2021/06/27 01:27:43;;;;;;;12.27;4.67;;;;;;;21.18;63.42;95088.88;5090208;28;20191;-69
2021/06/27 01:30:12;;;;;;;12.40;4.67;;;;;;;21.00;63.88;95082.03;5089530;28;20202;-71
2021/06/27 01:32:41;;;;;;;15.10;3.80;;;;;;;20.70;64.76;95078.41;5090151;28;20191;-70
2021/06/27 01:35:15;;;;;;;10.43;3.93;;;;;;;20.91;64.23;95084.63;5090425;28;20216;-72
2021/06/27 01:37:44;;;;;;;12.67;4.43;;;;;;;20.98;64.34;95092.94;5082050;28;20200;-69
2021/06/27 01:40:15;;;;;;;15.43;4.07;;;;;;;21.01;64.16;95092.34;5082257;28;20226;-70
2021/06/27 01:42:43;;;;;;;12.73;4.40;;;;;;;21.05;63.88;95098.63;5069919;28;20590;-69
2021/06/27 01:45:25;;;;;;;13.87;5.17;;;;;;;21.06;63.63;95097.50;5083715;28;20195;-69
2021/06/27 01:47:56;;;;;;;15.57;4.33;;;;;;;20.82;64.44;95097.19;5081980;28;20670;-69
2021/06/27 01:50:23;;;;;;;11.10;4.20;;;;;;;20.71;64.87;95101.25;5070411;28;20199;-69
2021/06/27 01:52:52;;;;;;;13.70;4.17;;;;;;;20.91;64.00;95095.28;5082529;28;20202;-70
2021/06/27 01:55:20;;;;;;;10.37;4.23;;;;;;;21.07;63.12;95093.75;5070652;28;20205;-69
2021/06/27 01:57:49;;;;;;;11.10;3.83;;;;;;;20.98;63.04;95084.19;5075697;28;20558;-69
2021/06/27 02:00:16;;;;;;;20.60;4.30;;;;;;;20.93;63.22;95097.63;5077429;28;20223;-69
2021/06/27 02:02:44;;;;;;;10.77;4.10;;;;;;;20.80;64.04;95104.69;5069617;28;20192;-69
2021/06/27 02:05:12;;;;;;;11.57;4.17;;;;;;;20.88;63.61;95097.81;5079608;28;20195;-68
2021/06/27 02:07:39;;;;;;;14.70;4.30;;;;;;;20.87;63.71;95094.38;5089491;28;20207;-69
2021/06/27 02:10:09;;;;;;;9.53;3.77;;;;;;;20.88;63.37;95087.16;5080219;28;20503;-68
2021/06/27 02:12:36;;;;;;;10.93;3.50;;;;;;;20.85;63.54;95080.59;5070895;28;20204;-69
2021/06/27 02:15:06;;;;;;;11.83;4.20;;;;;;;20.65;63.82;95043.16;5080398;28;20658;-69
2021/06/27 02:17:35;;;;;;;13.03;4.00;;;;;;;20.59;64.24;95061.16;5079035;28;20231;-69
2021/06/27 02:20:04;;;;;;;15.77;4.50;;;;;;;20.68;64.45;95080.59;5078305;28;20252;-69
2021/06/27 02:22:31;;;;;;;12.40;4.00;;;;;;;20.67;63.90;95081.69;5088688;28;20233;-69
2021/06/27 02:24:58;;;;;;;9.63;3.70;;;;;;;20.67;63.58;95089.69;5087876;28;20203;-70
2021/06/27 02:27:25;;;;;;;11.23;3.77;;;;;;;20.71;63.76;95095.16;5088421;28;20655;-71
2021/06/27 02:29:52;;;;;;;10.17;3.90;;;;;;;20.62;63.59;95083.72;5088864;28;20198;-69
2021/06/27 02:32:19;;;;;;;10.73;3.80;;;;;;;20.62;63.95;95092.47;5089149;28;20231;-70
2021/06/27 02:34:45;;;;;;;11.37;4.27;;;;;;;20.57;63.94;95087.31;5088122;28;20646;-70
2021/06/27 02:37:12;;;;;;;10.87;4.00;;;;;;;20.67;64.14;95089.69;5089648;28;20285;-71
2021/06/27 02:39:39;;;;;;;15.43;4.43;;;;;;;20.58;63.82;95086.25;5078648;28;20238;-68
2021/06/27 02:42:06;;;;;;;11.53;4.30;;;;;;;20.55;64.02;95094.03;5083186;28;20195;-71
2021/06/27 02:44:33;;;;;;;13.23;3.93;;;;;;;20.60;64.26;95100.00;5077785;28;20615;-70
2021/06/27 02:47:00;;;;;;;10.17;3.60;;;;;;;20.59;63.92;95093.13;5075155;28;20227;-68
2021/06/27 02:49:27;;;;;;;12.00;3.97;;;;;;;20.63;64.00;95096.72;5089018;28;20203;-69
2021/06/27 02:51:54;;;;;;;10.37;3.80;;;;;;;20.64;63.97;95100.94;5076030;28;20212;-70
2021/06/27 02:54:22;;;;;;;13.13;4.10;;;;;;;20.68;63.63;95093.13;5088142;28;20198;-71
2021/06/27 02:56:49;;;;;;;13.03;3.93;;;;;;;20.74;63.12;95092.66;5077791;28;20192;-69
2021/06/27 02:59:16;;;;;;;12.10;3.67;;;;;;;20.81;62.73;95111.59;5082672;28;20216;-72
2021/06/27 03:01:43;;;;;;;10.23;4.10;;;;;;;20.70;63.31;95105.03;5078974;28;20202;-68
2021/06/27 03:04:09;;;;;;;13.30;3.73;;;;;;;20.87;62.87;95118.34;5085058;28;20203;-68
2021/06/27 03:06:36;;;;;;;13.90;3.73;;;;;;;20.78;63.19;95117.53;5077745;28;20188;-67
2021/06/27 03:09:03;;;;;;;9.50;3.40;;;;;;;20.73;63.33;95114.28;5088582;28;20203;-68
2021/06/27 03:11:30;;;;;;;9.90;4.17;;;;;;;20.64;63.55;95126.78;5082234;28;20184;-69
2021/06/27 03:13:57;;;;;;;15.00;3.83;;;;;;;20.57;63.42;95105.97;5081044;28;20577;-71
2021/06/27 03:16:24;;;;;;;10.53;3.60;;;;;;;20.68;63.28;95125.84;5090529;28;20187;-71
2021/06/27 03:18:51;;;;;;;13.20;4.20;;;;;;;20.83;63.09;95136.06;5084315;28;20701;-68
2021/06/27 03:21:18;;;;;;;12.60;4.07;;;;;;;20.91;62.98;95127.25;5092925;28;20202;-69
2021/06/27 03:23:45;;;;;;;11.60;4.20;;;;;;;20.81;63.13;95116.94;5092569;28;20191;-69
2021/06/27 03:26:12;;;;;;;10.27;4.20;;;;;;;20.91;63.08;95127.25;5092196;28;20255;-69
2021/06/27 03:28:39;;;;;;;11.23;4.10;;;;;;;20.88;63.03;95125.25;5092788;28;20598;-68
2021/06/27 03:31:06;;;;;;;13.80;4.17;;;;;;;20.96;62.74;95135.13;5091693;28;20235;-69
2021/06/27 03:33:33;;;;;;;9.87;3.57;;;;;;;20.87;63.43;95131.69;5092664;28;20303;-70
2021/06/27 03:36:00;;;;;;;11.40;4.00;;;;;;;20.90;63.51;95135.56;5091984;28;20199;-69
2021/06/27 03:38:48;;;;;;;12.63;4.77;;;;;;;21.08;63.17;95129.97;5079489;28;20208;-70
2021/06/27 03:41:20;;;;;;;14.93;4.63;;;;;;;21.20;62.62;95139.19;5093558;28;20191;-68
2021/06/27 03:43:48;;;;;;;15.63;4.40;;;;;;;20.98;63.03;95111.59;5079555;28;20192;-69
2021/06/27 03:46:16;;;;;;;8.93;4.10;;;;;;;21.12;63.24;95125.56;5094013;28;20187;-67
2021/06/27 03:48:43;;;;;;;12.73;4.70;;;;;;;21.17;62.82;95131.84;5093989;28;20252;-67
2021/06/27 03:51:10;;;;;;;11.70;4.17;;;;;;;21.07;63.33;95128.41;5091890;28;20191;-68
2021/06/27 03:53:37;;;;;;;16.20;4.30;;;;;;;20.97;63.79;95142.00;5092281;28;20550;-70
2021/06/27 03:56:04;;;;;;;14.93;4.63;;;;;;;20.95;63.58;95128.22;5077537;28;20195;-67
2021/06/27 03:58:31;;;;;;;13.07;4.03;;;;;;;20.97;63.26;95130.56;5092279;28;20257;-67
2021/06/27 04:00:58;;;;;;;11.00;3.90;;;;;;;20.96;63.67;95129.78;5077542;28;20226;-67
2021/06/27 04:03:25;;;;;;;9.70;4.70;;;;;;;20.85;64.24;95139.19;5082152;28;20192;-67
2021/06/27 04:05:52;;;;;;;9.70;4.17;;;;;;;20.94;63.90;95137.31;5085461;28;20518;-67
2021/06/27 04:08:19;;;;;;;16.83;4.43;;;;;;;20.88;63.90;95138.56;5080603;28;20202;-70
2021/06/27 04:10:46;;;;;;;10.93;4.73;;;;;;;21.08;63.50;95143.28;5090779;28;20663;-70
2021/06/27 04:13:16;;;;;;;14.80;4.63;;;;;;;21.18;63.40;95132.28;5090815;28;20282;-69
2021/06/27 04:15:43;;;;;;;12.77;4.70;;;;;;;21.37;62.97;95133.84;5084586;28;20187;-69
2021/06/27 04:18:10;;;;;;;14.70;5.47;;;;;;;21.53;62.50;95132.22;5084321;28;20199;-68
2021/06/27 04:20:37;;;;;;;11.07;5.17;;;;;;;21.41;62.36;95134.75;5089182;28;20703;-69
2021/06/27 04:23:06;;;;;;;11.33;4.47;;;;;;;21.51;62.03;95134.44;5091787;28;20210;-68
2021/06/27 04:25:35;;;;;;;20.00;5.37;;;;;;;21.56;61.73;95139.59;5087213;28;20214;-70
2021/06/27 04:28:03;;;;;;;12.33;4.87;;;;;;;21.73;60.88;95136.88;5079761;28;20187;-68
2021/06/27 04:30:30;;;;;;;14.60;5.10;;;;;;;21.73;60.80;95137.66;5077870;28;20235;-69
2021/06/27 04:32:57;;;;;;;11.40;4.53;;;;;;;21.80;60.96;95142.53;5079304;28;20310;-69
2021/06/27 04:35:24;;;;;;;15.80;5.23;;;;;;;21.58;60.21;95140.06;5081958;28;20207;-68
2021/06/27 04:37:51;;;;;;;12.93;5.30;;;;;;;21.37;60.56;95134.59;5091140;28;20721;-68
2021/06/27 04:40:18;;;;;;;16.93;5.37;;;;;;;20.88;61.20;95137.75;5076057;28;20234;-67
2021/06/27 04:42:45;;;;;;;13.70;4.60;;;;;;;21.31;60.08;95140.44;5083774;28;20192;-68
2021/06/27 04:45:13;;;;;;;12.80;5.20;;;;;;;21.26;60.55;95159.25;5082818;28;20214;-69
2021/06/27 04:47:40;;;;;;;11.97;5.57;;;;;;;20.85;61.59;95155.16;5091009;28;20207;-67
2021/06/27 04:50:08;;;;;;;22.70;6.27;;;;;;;20.67;62.95;95134.97;5088952;28;20194;-67
2021/06/27 04:52:35;;;;;;;14.70;5.03;;;;;;;20.99;61.84;95155.81;5081659;28;20207;-67
2021/06/27 04:55:03;;;;;;;17.87;6.03;;;;;;;21.18;62.14;95156.25;5091646;28;20202;-66
2021/06/27 04:57:31;;;;;;;17.77;7.20;;;;;;;21.50;61.75;95154.19;5090984;28;20202;-66
2021/06/27 04:59:58;;;;;;;38.40;28.43;;;;;;;21.94;60.98;95156.44;5075393;28;20301;-67
2021/06/27 05:02:26;;;;;;;64.87;49.23;;;;;;;21.99;60.84;95156.25;5077147;28;20661;-68
2021/06/27 05:04:53;;;;;;;18.73;8.93;;;;;;;21.60;61.82;95153.84;5090218;28;20195;-67
2021/06/27 05:07:21;;;;;;;19.27;8.57;;;;;;;22.08;60.71;95157.00;5090452;28;20210;-68
2021/06/27 05:09:49;;;;;;;16.40;7.70;;;;;;;22.04;61.06;95148.09;5087970;28;20199;-68
2021/06/27 05:12:16;;;;;;;62.47;42.50;;;;;;;22.01;60.78;95148.72;5079717;28;20577;-70
2021/06/27 05:14:43;;;;;;;49.70;37.83;;;;;;;21.68;61.06;95150.38;5088197;28;20218;-72
2021/06/27 05:17:10;;;;;;;15.30;6.90;;;;;;;21.90;61.11;95156.28;5090408;28;20232;-68
2021/06/27 05:19:37;;;;;;;18.17;7.30;;;;;;;21.98;60.62;95154.69;5090041;28;20600;-69
2021/06/27 05:22:04;;;;;;;12.53;6.87;;;;;;;22.12;60.19;95156.06;5089975;28;20249;-66
2021/06/27 05:24:31;;;;;;;17.10;6.67;;;;;;;22.34;60.06;95156.88;5074568;28;20203;-68
2021/06/27 05:26:58;;;;;;;140.93;120.57;;;;;;;22.47;59.90;95151.31;5079633;28;20195;-67
2021/06/27 05:29:25;;;;;;;19.60;10.93;;;;;;;22.66;60.14;95154.34;5089225;28;20959;-72
2021/06/27 05:31:52;;;;;;;19.30;8.23;;;;;;;22.79;59.63;95147.97;5085860;28;20761;-65
2021/06/27 05:34:19;;;;;;;15.80;6.30;;;;;;;22.32;59.21;95159.09;5086044;28;20187;-64
2021/06/27 05:36:46;;;;;;;18.63;7.20;;;;;;;22.39;60.66;95157.47;5076844;28;20214;-64
2021/06/27 05:39:14;;;;;;;17.63;8.17;;;;;;;22.10;60.90;95168.13;5069159;28;20196;-65
2021/06/27 05:41:43;;;;;;;17.93;7.43;;;;;;;21.60;61.94;95170.66;5083039;28;20199;-66
2021/06/27 05:44:10;;;;;;;16.53;6.20;;;;;;;22.09;61.18;95161.25;5075062;28;20205;-65
2021/06/27 05:46:37;;;;;;;16.83;6.30;;;;;;;22.26;61.97;95169.19;5090243;28;20203;-66
2021/06/27 05:49:05;;;;;;;14.37;6.13;;;;;;;22.58;61.93;95167.75;5089478;28;20543;-66
2021/06/27 05:51:37;;;;;;;11.60;6.03;;;;;;;22.83;60.46;95170.28;5079587;28;20218;-66
2021/06/27 05:54:05;;;;;;;13.03;6.23;;;;;;;22.77;60.33;95171.56;5071940;28;20218;-66
2021/06/27 05:56:32;;;;;;;13.30;5.60;;;;;;;22.92;60.00;95173.66;5089825;28;20225;-67
2021/06/27 05:58:59;;;;;;;14.87;5.77;;;;;;;22.81;60.29;95172.47;5085141;28;20645;-67
2021/06/27 06:01:26;;;;;;;18.80;11.90;;;;;;;23.03;59.54;95172.16;5086393;28;20280;-65
2021/06/27 06:03:53;;;;;;;77.33;61.43;;;;;;;23.28;59.14;95169.59;5075789;28;20196;-67
2021/06/27 06:06:19;;;;;;;17.67;7.20;;;;;;;23.07;59.97;95164.28;5071714;28;20618;-65
2021/06/27 06:08:46;;;;;;;17.57;7.00;;;;;;;23.14;60.21;95165.31;5083513;28;20195;-66
2021/06/27 06:11:16;;;;;;;20.57;7.77;;;;;;;23.39;59.12;95168.13;5072124;28;20200;-65
2021/06/27 06:13:43;;;;;;;19.30;6.27;;;;;;;23.44;59.35;95162.56;5081003;28;20198;-63
2021/06/27 06:16:12;;;;;;;18.33;7.60;;;;;;;23.45;59.41;95161.47;5090085;28;20195;-65
2021/06/27 06:18:42;;;;;;;16.50;6.70;;;;;;;23.24;60.59;95163.34;5090753;28;20198;-66
2021/06/27 06:21:09;;;;;;;18.67;6.43;;;;;;;23.41;59.12;95163.22;5090523;28;20307;-65
2021/06/27 06:23:37;;;;;;;12.23;6.23;;;;;;;23.59;58.31;95162.72;5090168;28;20195;-68
2021/06/27 06:26:04;;;;;;;19.10;5.87;;;;;;;23.45;59.13;95170.25;5089184;28;20306;-68
2021/06/27 06:28:32;;;;;;;18.90;5.97;;;;;;;23.42;60.04;95160.22;5089170;28;20261;-66
2021/06/27 06:30:59;;;;;;;22.60;8.73;;;;;;;23.97;58.48;95170.50;5088675;28;20241;-67
2021/06/27 06:33:26;;;;;;;193.67;174.10;;;;;;;24.06;57.93;95169.31;5089893;28;20195;-66
2021/06/27 06:35:53;;;;;;;21.20;8.03;;;;;;;24.07;58.03;95165.50;5089395;28;20207;-66
2021/06/27 06:38:20;;;;;;;17.40;6.80;;;;;;;24.07;57.95;95162.03;5089998;28;20195;-66
2021/06/27 06:40:47;;;;;;;17.70;9.17;;;;;;;24.44;57.75;95158.28;5074948;28;20267;-66
2021/06/27 06:43:13;;;;;;;21.27;7.13;;;;;;;24.53;57.17;95164.28;5089420;28;20195;-67
2021/06/27 06:45:41;;;;;;;19.60;6.20;;;;;;;24.45;56.48;95157.13;5088338;28;20260;-66
2021/06/27 06:48:08;;;;;;;16.97;6.97;;;;;;;24.63;57.58;95150.44;5079122;28;20196;-67
2021/06/27 06:50:35;;;;;;;16.10;7.43;;;;;;;24.68;56.46;95150.22;5083127;28;20199;-67
2021/06/27 06:53:04;;;;;;;19.07;7.23;;;;;;;24.85;55.98;95152.66;5072935;28;20195;-66
2021/06/27 06:55:31;;;;;;;45.33;8.17;;;;;;;24.88;55.59;95162.72;5086765;28;20577;-67
2021/06/27 06:57:58;;;;;;;13.70;5.93;;;;;;;24.65;55.79;95153.53;5079682;28;20191;-68
2021/06/27 07:00:25;;;;;;;54.93;36.03;;;;;;;24.90;55.63;95155.13;5092988;28;20223;-67
2021/06/27 07:02:52;;;;;;;44.80;36.37;;;;;;;25.16;55.81;95154.69;5093278;28;20620;-65
2021/06/27 07:05:18;;;;;;;16.00;8.03;;;;;;;25.22;54.84;95155.25;5093158;28;20195;-66
2021/06/27 07:07:45;;;;;;;18.83;6.93;;;;;;;25.06;55.51;95144.44;5078106;28;20188;-67
2021/06/27 07:10:14;;;;;;;36.03;7.87;;;;;;;25.07;55.32;95149.47;5079094;28;20256;-66
2021/06/27 07:12:42;;;;;;;19.27;7.17;;;;;;;25.22;55.77;95157.94;5085604;28;20199;-66
2021/06/27 07:15:10;;;;;;;14.40;6.97;;;;;;;25.32;55.32;95150.16;5086407;28;20192;-68
2021/06/27 07:17:37;;;;;;;16.53;6.67;;;;;;;25.52;55.06;95151.09;5084928;28;20661;-68
2021/06/27 07:20:06;;;;;;;17.03;5.60;;;;;;;25.65;54.20;95152.59;5085730;28;20211;-68
2021/06/27 07:22:33;;;;;;;18.33;7.17;;;;;;;25.62;53.42;95142.56;5086548;28;20183;-66
2021/06/27 07:25:00;;;;;;;14.30;5.73;;;;;;;26.04;53.35;95149.81;5092213;28;20632;-67
2021/06/27 07:27:27;;;;;;;16.03;6.37;;;;;;;26.07;53.03;95147.56;5092455;28;20232;-67
2021/06/27 07:29:54;;;;;;;15.97;6.90;;;;;;;26.04;53.54;95127.53;5091865;28;20613;-68
2021/06/27 07:32:21;;;;;;;14.73;6.03;;;;;;;26.26;52.28;95137.66;5094283;28;20234;-66
2021/06/27 07:34:48;;;;;;;16.87;5.83;;;;;;;26.26;53.82;95139.59;5093235;28;20198;-66
2021/06/27 07:37:15;;;;;;;16.43;5.10;;;;;;;26.48;51.58;95139.72;5087629;28;20726;-66
2021/06/27 07:39:42;;;;;;;15.53;6.47;;;;;;;26.71;51.31;95148.75;5092668;28;20198;-66
2021/06/27 07:42:09;;;;;;;13.20;5.33;;;;;;;26.72;50.92;95146.81;5074876;28;20322;-67
2021/06/27 07:44:36;;;;;;;15.17;5.40;;;;;;;26.64;50.86;95140.47;5081294;28;20197;-66
2021/06/27 07:47:03;;;;;;;20.57;5.60;;;;;;;26.66;49.89;95138.19;5092254;28;20195;-66
2021/06/27 07:49:30;;;;;;;15.17;5.07;;;;;;;26.86;50.46;95139.06;5084935;28;20227;-68
2021/06/27 07:51:58;;;;;;;12.10;4.97;;;;;;;26.64;51.17;95140.47;5071134;28;20705;-68
2021/06/27 07:54:25;;;;;;;14.93;5.37;;;;;;;26.92;50.79;95141.13;5092303;28;20198;-65
2021/06/27 07:56:51;;;;;;;12.87;5.50;;;;;;;27.02;51.22;95137.84;5080488;28;20290;-68
2021/06/27 07:59:18;;;;;;;23.93;15.40;;;;;;;27.09;51.91;95131.84;5089662;28;20653;-66
2021/06/27 08:01:45;;;;;;;194.20;173.73;;;;;;;26.98;49.82;95139.72;5081442;28;20273;-66
2021/06/27 08:04:12;;;;;;;15.97;7.40;;;;;;;26.96;51.41;95136.59;5088075;28;20203;-66
2021/06/27 08:06:39;;;;;;;13.57;6.03;;;;;;;27.13;50.81;95140.00;5091847;28;20261;-69
2021/06/27 08:09:06;;;;;;;12.87;4.70;;;;;;;26.91;47.92;95131.50;5091839;28;20199;-68
2021/06/27 08:11:33;;;;;;;16.27;6.00;;;;;;;26.82;47.57;95138.97;5085091;28;20195;-66
2021/06/27 08:14:00;;;;;;;13.83;5.30;;;;;;;26.95;47.49;95129.66;5071904;28;20278;-70
2021/06/27 08:16:27;;;;;;;11.20;4.67;;;;;;;26.96;49.66;95125.84;5091067;28;20250;-70
2021/06/27 08:18:54;;;;;;;7.90;4.53;;;;;;;27.42;48.52;95131.38;5082961;28;20211;-68
2021/06/27 08:21:21;;;;;;;10.07;4.63;;;;;;;27.67;46.54;95132.59;5092023;28;20233;-70
2021/06/27 08:23:48;;;;;;;8.17;4.00;;;;;;;27.51;45.65;95130.03;5091578;28;20195;-69
2021/06/27 08:26:15;;;;;;;10.50;4.50;;;;;;;27.70;44.25;95129.22;5091415;28;20202;-67
2021/06/27 08:28:53;;;;;;;13.47;5.00;;;;;;;27.74;45.41;95127.34;5090723;28;20199;-68
2021/06/27 08:31:21;;;;;;;10.27;4.30;;;;;;;27.54;43.44;95140.06;5087567;28;20242;-70
2021/06/27 08:33:50;;;;;;;11.40;4.03;;;;;;;27.50;46.18;95133.06;5091194;28;20643;-66
2021/06/27 08:36:17;;;;;;;16.23;4.60;;;;;;;27.50;46.42;95133.06;5077398;28;20203;-68
2021/06/27 08:38:43;;;;;;;14.50;4.87;;;;;;;27.84;44.53;95132.94;5074403;28;20187;-70
2021/06/27 08:41:14;;;;;;;6.00;3.93;;;;;;;27.66;44.12;95120.28;5080461;28;20203;-69
2021/06/27 08:43:42;;;;;;;8.17;4.47;;;;;;;27.74;44.57;95120.06;5090597;28;20195;-68
2021/06/27 08:46:12;;;;;;;13.47;3.90;;;;;;;27.66;42.37;95107.59;5083408;28;20576;-63
2021/06/27 08:48:41;;;;;;;9.90;4.33;;;;;;;27.93;44.07;95120.03;5070944;28;20235;-67
2021/06/27 08:51:09;;;;;;;7.27;4.37;;;;;;;28.04;44.37;95120.22;5078180;28;20249;-72
2021/06/27 08:53:40;;;;;;;8.93;4.13;;;;;;;28.06;43.79;95117.94;5078052;28;20200;-65
2021/06/27 08:56:08;;;;;;;6.97;3.73;;;;;;;28.43;41.89;95115.44;5091799;28;20599;-72
2021/06/27 08:58:43;;;;;;;64.13;55.50;;;;;;;28.33;42.71;95116.81;5079246;28;20195;-65
2021/06/27 09:01:17;;;;;;;158.67;142.93;;;;;;;28.43;41.85;95116.19;5084720;28;20254;-69
2021/06/27 09:03:46;;;;;;;16.07;9.43;;;;;;;28.46;42.35;95115.47;5083650;28;20195;-66
2021/06/27 09:06:23;;;;;;;11.37;5.17;;;;;;;28.49;42.07;95111.28;5090239;28;20191;-68
2021/06/27 09:09:09;;;;;;;10.10;4.63;;;;;;;28.78;42.42;95116.72;5090407;28;20212;-68
2021/06/27 09:11:37;;;;;;;9.93;3.70;;;;;;;28.69;42.25;95118.13;5078284;28;20262;-64
2021/06/27 09:14:24;;;;;;;8.63;5.00;;;;;;;28.80;40.28;95122.53;5090206;28;20260;-72
2021/06/27 09:17:17;;;;;;;9.23;4.80;;;;;;;28.58;41.16;95118.00;5089828;28;20222;-64
2021/06/27 09:19:57;;;;;;;11.57;8.77;;;;;;;28.53;40.37;95109.44;5091018;28;20252;-65
2021/06/27 09:22:29;;;;;;;11.73;4.43;;;;;;;28.66;41.97;95116.97;5088982;28;20230;-69
2021/06/27 09:25:16;;;;;;;8.17;4.03;;;;;;;29.09;41.56;95112.13;5085694;28;20195;-64
2021/06/27 09:27:44;;;;;;;7.67;3.70;;;;;;;28.89;40.38;95101.47;5078814;28;20194;-65
2021/06/27 09:30:17;;;;;;;10.47;3.90;;;;;;;28.58;39.91;95101.81;5085962;28;20203;-67
2021/06/27 09:32:53;;;;;;;7.93;3.90;;;;;;;28.86;39.59;95096.81;5080597;28;20673;-68
2021/06/27 09:35:41;;;;;;;13.20;4.10;;;;;;;28.85;41.09;95097.94;5085730;28;20187;-66
2021/06/27 09:38:18;;;;;;;9.93;4.63;;;;;;;29.12;40.29;95103.31;5080317;28;20223;-70
2021/06/27 09:40:45;;;;;;;11.67;4.10;;;;;;;29.09;39.69;95095.94;5085634;28;20233;-64
2021/06/27 09:43:13;;;;;;;9.57;4.53;;;;;;;29.01;39.13;95102.38;5082612;28;20188;-67
2021/06/27 09:45:49;;;;;;;7.77;4.20;;;;;;;29.11;39.22;95107.09;5086145;28;20199;-71
2021/06/27 09:48:16;;;;;;;6.40;3.70;;;;;;;29.19;38.90;95098.78;5090159;28;20191;-65
2021/06/27 09:50:45;;;;;;;15.57;3.87;;;;;;;29.27;37.98;95089.59;5089353;28;20679;-68
2021/06/27 09:53:38;;;;;;;93.83;82.43;;;;;;;29.55;38.54;95100.72;5086868;28;20989;-63
2021/06/27 09:56:07;;;;;;;12.17;5.50;;;;;;;29.15;39.10;95089.06;5081400;28;20199;-74
2021/06/27 09:58:56;;;;;;;6.07;4.07;;;;;;;29.33;39.07;95088.13;5079195;28;20207;-72
2021/06/27 10:01:25;;;;;;;8.87;4.70;;;;;;;29.73;39.71;95087.41;5081291;28;20676;-71
2021/06/27 10:03:54;;;;;;;10.83;4.20;;;;;;;29.51;38.54;95077.50;5074429;28;20188;-70
2021/06/27 10:06:27;;;;;;;8.23;4.53;;;;;;;29.78;39.85;95079.72;5078517;28;20222;-66
2021/06/27 10:08:55;;;;;;;9.57;4.13;;;;;;;29.68;38.42;95071.50;5074406;28;20204;-63
2021/06/27 10:11:31;;;;;;;12.67;4.20;;;;;;;29.81;39.80;95078.22;5086907;28;20569;-67
2021/06/27 10:14:14;;;;;;;10.73;4.10;;;;;;;30.01;39.24;95073.38;5089980;28;20201;-69
2021/06/27 10:16:41;;;;;;;12.80;5.60;;;;;;;30.14;37.85;95078.13;5095226;28;20191;-66
2021/06/27 10:19:26;;;;;;;19.23;13.80;;;;;;;30.22;40.16;95079.69;5096510;28;20187;-62
2021/06/27 10:21:58;;;;;;;25.30;20.63;;;;;;;30.20;38.33;95071.19;5091890;28;20239;-64
2021/06/27 10:24:27;;;;;;;7.43;5.13;;;;;;;29.99;37.04;95065.63;5076556;28;20201;-72
2021/06/27 10:26:55;;;;;;;13.43;4.17;;;;;;;30.37;37.66;95070.56;5095098;28;20232;-70
2021/06/27 10:29:23;;;;;;;6.93;3.87;;;;;;;30.29;36.73;95063.56;5102438;28;20187;-69
2021/06/27 10:31:53;;;;;;;13.33;5.00;;;;;;;29.99;36.11;95065.63;5100500;28;20231;-66
2021/06/27 10:34:22;;;;;;;10.33;4.30;;;;;;;30.13;36.43;95068.44;5097790;28;20683;-71
2021/06/27 10:36:56;;;;;;;12.33;4.53;;;;;;;30.75;36.89;95061.13;5093825;28;20203;-69
2021/06/27 10:39:24;;;;;;;11.00;4.43;;;;;;;30.88;36.39;95063.16;5093715;28;20222;-66
2021/06/27 10:41:59;;;;;;;14.17;4.83;;;;;;;31.07;36.66;95064.00;5092985;28;20238;-66
2021/06/27 10:44:36;;;;;;;11.47;4.50;;;;;;;31.21;36.45;95061.34;5085988;28;20195;-64
2021/06/27 10:47:05;;;;;;;9.83;4.23;;;;;;;31.13;35.91;95051.66;5088956;28;20195;-65
2021/06/27 10:49:35;;;;;;;13.67;4.20;;;;;;;31.40;36.79;95050.22;5093254;28;20229;-68
2021/06/27 10:52:08;;;;;;;17.80;4.53;;;;;;;31.24;35.08;95055.19;5078835;28;20581;-69
2021/06/27 10:54:40;;;;;;;12.00;4.30;;;;;;;31.04;35.90;95064.78;5093225;28;20261;-69
2021/06/27 10:57:12;;;;;;;17.90;4.97;;;;;;;31.39;35.46;95052.13;5092729;28;20197;-69
2021/06/27 10:59:45;;;;;;;13.27;5.03;;;;;;;31.45;35.57;95052.53;5078185;28;20582;-68
2021/06/27 11:02:38;;;;;;;126.93;108.63;;;;;;;31.72;35.71;95056.44;5092849;28;20210;-63
2021/06/27 11:05:34;;;;;;;12.00;7.87;;;;;;;32.15;35.18;95051.84;5077270;28;20200;-71
2021/06/27 11:08:04;;;;;;;12.00;5.07;;;;;;;32.22;35.57;95047.19;5079924;28;20207;-72
2021/06/27 11:10:33;;;;;;;13.33;4.73;;;;;;;32.07;34.58;95042.94;5080090;28;20661;-72
2021/06/27 11:13:00;;;;;;;14.20;5.13;;;;;;;31.97;34.87;95041.00;5085322;28;20205;-65
2021/06/27 11:15:34;;;;;;;13.60;4.30;;;;;;;31.56;33.56;95042.50;5081482;28;20205;-73
2021/06/27 11:18:10;;;;;;;9.20;3.90;;;;;;;31.80;33.89;95049.88;5085268;28;20190;-75
2021/06/27 11:20:48;;;;;;;12.90;5.03;;;;;;;31.72;33.97;95043.69;5083725;28;20635;-71
2021/06/27 11:23:15;;;;;;;10.80;4.47;;;;;;;31.30;33.78;95040.09;5074831;28;20641;-65
2021/06/27 11:25:47;;;;;;;10.97;4.10;;;;;;;31.38;34.28;95047.91;5089097;28;20281;-65
2021/06/27 11:28:21;;;;;;;53.10;39.23;;;;;;;31.20;34.63;95035.44;5088077;28;20209;-67
2021/06/27 11:31:22;;;;;;;46.20;41.00;;;;;;;31.71;36.09;95034.03;5091147;28;20309;-69
2021/06/27 11:34:20;;;;;;;10.53;4.40;;;;;;;32.22;34.58;95036.34;5089804;28;20263;-68